createdAt,value
2024-05-09T00:06:53.719Z,32.2253
2024-05-09T00:17:14.531Z,32.2189
2024-05-09T00:27:35.249Z,32.2100
2024-05-09T00:37:56.089Z,32.2100
2024-05-09T00:48:19.752Z,32.2036
2024-05-09T00:58:28.406Z,32.2000
2024-05-09T01:08:49.423Z,32.1960
2024-05-09T01:19:10.371Z,32.1967
2024-05-09T01:29:31.466Z,32.1911
2024-05-09T01:39:52.309Z,32.1931
2024-05-09T01:50:16.363Z,32.1916
2024-05-09T02:00:33.738Z,32.1843
2024-05-09T02:10:35.928Z,32.1836
2024-05-09T02:20:56.727Z,32.1762
2024-05-09T02:31:17.283Z,32.1700
2024-05-09T02:41:37.876Z,32.1638
2024-05-09T02:51:58.268Z,32.1500
2024-05-09T03:02:19.050Z,32.1500
2024-05-09T03:12:39.524Z,32.1442
2024-05-09T03:23:00.316Z,32.1400
2024-05-09T03:33:21.636Z,32.1389
2024-05-09T03:43:42.591Z,32.1304
2024-05-09T03:54:03.140Z,32.1302
2024-05-09T04:04:24.006Z,32.1198
2024-05-09T04:14:44.458Z,32.1302
2024-05-09T04:25:04.829Z,32.1278
2024-05-09T04:35:25.485Z,32.1216
2024-05-09T04:45:46.120Z,32.1104
2024-05-09T04:56:06.729Z,32.1100
2024-05-09T05:06:27.131Z,32.1071
2024-05-09T05:16:47.822Z,32.1000
2024-05-09T05:27:08.310Z,32.1002
2024-05-09T05:37:28.789Z,32.0938
2024-05-09T05:47:49.537Z,32.0869
2024-05-09T05:58:10.438Z,32.0800
2024-05-09T06:08:30.929Z,32.0800
2024-05-09T06:18:51.593Z,32.0724
2024-05-09T06:29:12.244Z,32.0644
2024-05-09T06:39:33.133Z,32.0600
2024-05-09T06:49:53.856Z,32.0558
2024-05-09T07:00:22.735Z,32.0609
2024-05-09T07:10:32.909Z,32.0505
2024-05-09T07:20:40.480Z,32.0432
2024-05-09T07:31:01.444Z,32.0389
2024-05-09T07:41:21.886Z,32.0338
2024-05-09T08:01:52.176Z,32.0200
2024-05-09T08:12:12.714Z,32.0040
2024-05-09T08:22:33.139Z,31.9791
2024-05-09T08:32:53.707Z,31.9578
2024-05-09T08:43:14.296Z,31.9507
2024-05-09T08:53:34.893Z,31.9438
2024-05-09T09:03:55.687Z,31.9356
2024-05-09T09:14:16.534Z,31.9118
2024-05-09T09:24:37.282Z,31.8889
2024-05-09T09:34:58.131Z,31.8740
2024-05-09T09:45:18.725Z,31.8613
2024-05-09T09:55:39.337Z,31.8478
2024-05-09T10:05:47.885Z,31.8114
2024-05-09T10:16:09.109Z,31.7762
2024-05-09T10:26:30.344Z,31.7336
2024-05-09T10:36:51.253Z,31.6853
2024-05-09T10:47:12.289Z,31.6362
2024-05-09T10:57:33.087Z,31.6131
2024-05-09T11:07:53.904Z,31.5891
2024-05-09T11:18:14.992Z,31.5391
2024-05-09T11:28:35.785Z,31.4947
2024-05-09T11:38:56.656Z,31.4447
2024-05-09T11:49:17.564Z,31.3867
2024-05-09T11:59:38.228Z,31.3387
2024-05-09T12:09:59.071Z,31.3156
2024-05-09T12:20:28.344Z,31.2678
2024-05-09T12:30:37.327Z,31.2202
2024-05-09T12:40:45.047Z,31.1695
2024-05-09T12:51:05.797Z,31.1184
2024-05-09T13:01:26.657Z,31.0742
2024-05-09T13:11:47.772Z,31.0240
2024-05-09T13:22:08.458Z,30.9671
2024-05-09T13:32:29.223Z,30.9100
2024-05-09T13:42:49.874Z,30.8604
2024-05-09T13:53:10.801Z,30.8049
2024-05-09T14:03:32.103Z,30.7596
2024-05-09T14:13:52.916Z,30.7109
2024-05-09T14:24:13.951Z,30.6644
2024-05-09T14:34:35.620Z,30.6060
2024-05-09T14:44:56.341Z,30.5449
2024-05-09T14:55:16.966Z,30.5020
2024-05-09T15:05:37.948Z,30.4484
2024-05-09T15:15:47.544Z,30.3939
2024-05-09T15:26:08.205Z,30.3462
2024-05-09T15:36:29.352Z,30.3013
2024-05-09T15:46:50.317Z,30.2762
2024-05-09T15:57:11.320Z,30.2460
2024-05-09T16:07:32.333Z,30.2064
2024-05-09T16:17:53.288Z,30.1536
2024-05-09T16:28:14.004Z,30.1142
2024-05-09T16:38:35.113Z,30.0729
2024-05-09T16:48:56.571Z,30.0327
2024-05-09T16:59:17.937Z,29.9998
2024-05-09T17:09:38.960Z,29.9658
2024-05-09T17:19:59.819Z,29.9329
2024-05-09T17:30:28.277Z,29.9173
2024-05-09T17:40:36.650Z,29.9034
2024-05-09T17:50:45.235Z,29.8939
2024-05-09T18:01:06.334Z,29.8887
2024-05-09T18:11:26.953Z,29.8753
2024-05-09T18:21:47.985Z,29.8676
2024-05-09T18:32:08.934Z,29.8616
2024-05-09T18:42:29.807Z,29.8676
2024-05-09T18:52:50.510Z,29.8613
2024-05-09T19:03:13.489Z,29.8567
2024-05-09T19:13:22.328Z,29.8455
2024-05-09T19:23:50.415Z,29.8400
2024-05-09T19:33:56.133Z,29.8343
2024-05-09T19:44:17.291Z,29.8309
2024-05-09T19:54:37.969Z,29.8300
2024-05-09T20:04:59.033Z,29.8296
2024-05-09T20:15:19.939Z,29.8287
2024-05-09T20:25:40.280Z,29.8200
2024-05-09T20:36:02.340Z,29.8244
2024-05-09T20:46:09.623Z,29.8205
2024-05-09T20:56:30.590Z,29.8149
2024-05-09T21:06:51.220Z,29.8098
2024-05-09T21:17:11.982Z,29.7971
2024-05-09T21:27:33.177Z,29.7944
2024-05-09T21:37:54.370Z,29.8007
2024-05-09T21:48:15.386Z,29.7962
2024-05-09T21:58:36.354Z,29.8020
2024-05-09T22:08:57.267Z,29.7947
2024-05-09T22:19:18.015Z,29.7891
2024-05-09T22:29:39.233Z,29.7842
2024-05-09T22:40:00.635Z,29.7824
2024-05-09T22:50:10.833Z,29.7798
2024-05-09T23:00:29.124Z,29.7750
2024-05-09T23:10:36.674Z,29.7689
2024-05-09T23:20:45.758Z,29.7711
2024-05-09T23:31:06.705Z,29.7673
2024-05-09T23:41:27.721Z,29.7602
2024-05-09T23:51:48.703Z,29.7600
